createdAt,value
2018-09-27T00:02:21.349Z,12.30
2018-09-27T00:06:23.723Z,12.30
2018-09-27T00:10:26.085Z,11.90
2018-09-27T00:14:28.475Z,12.00
2018-09-27T00:18:30.902Z,11.90
2018-09-27T00:22:33.306Z,12.10
2018-09-27T00:26:35.724Z,12.10
2018-09-27T00:30:38.071Z,12.20
2018-09-27T00:34:40.480Z,12.30
2018-09-27T00:38:42.858Z,12.20
2018-09-27T00:42:45.245Z,12.20
2018-09-27T00:46:47.624Z,12.00
2018-09-27T00:50:49.957Z,12.20
2018-09-27T00:54:52.232Z,11.90
2018-09-27T00:58:55.328Z,11.80
2018-09-27T01:02:57.561Z,11.90
2018-09-27T01:06:59.783Z,11.90
2018-09-27T01:11:11.512Z,11.80
2018-09-27T01:15:13.796Z,11.80
2018-09-27T01:19:16.248Z,11.60
2018-09-27T01:23:18.510Z,11.60
2018-09-27T01:27:20.779Z,11.60
2018-09-27T01:31:22.994Z,11.60
2018-09-27T01:35:25.304Z,10.10
2018-09-27T01:39:27.591Z,10.40
2018-09-27T01:43:29.848Z,11.00
2018-09-27T01:47:32.066Z,11.60
2018-09-27T01:51:34.297Z,11.80
2018-09-27T01:55:36.559Z,11.80
2018-09-27T01:59:38.758Z,11.80
2018-09-27T02:03:41.017Z,11.70
2018-09-27T02:07:43.286Z,11.60
2018-09-27T02:11:45.533Z,10.60
2018-09-27T02:15:47.759Z,10.50
2018-09-27T02:19:49.979Z,11.00
2018-09-27T02:23:52.205Z,11.40
2018-09-27T02:27:54.492Z,11.10
2018-09-27T02:31:56.729Z,10.60
2018-09-27T02:35:58.994Z,11.20
2018-09-27T02:40:01.292Z,11.50
2018-09-27T02:44:03.509Z,11.60
2018-09-27T02:48:05.794Z,10.90
2018-09-27T02:52:08.136Z,11.20
2018-09-27T02:56:10.493Z,11.60
2018-09-27T03:00:12.912Z,11.40
2018-09-27T03:04:15.175Z,11.40
2018-09-27T03:08:17.404Z,11.40
2018-09-27T03:12:19.653Z,11.30
2018-09-27T03:16:21.868Z,11.40
2018-09-27T03:20:24.108Z,11.30
2018-09-27T03:24:27.401Z,11.20
2018-09-27T03:28:29.646Z,10.90
2018-09-27T03:32:31.898Z,11.00
2018-09-27T03:36:34.138Z,11.10
2018-09-27T03:40:36.522Z,10.70
2018-09-27T03:44:39.013Z,10.90
2018-09-27T03:48:41.269Z,10.90
2018-09-27T03:52:43.575Z,10.40
2018-09-27T03:56:45.791Z,10.90
2018-09-27T04:00:48.022Z,11.00
2018-09-27T04:04:50.265Z,10.50
2018-09-27T04:08:52.601Z,11.00
2018-09-27T04:12:54.843Z,10.90
2018-09-27T04:16:57.047Z,10.20
2018-09-27T04:20:59.245Z,10.90
2018-09-27T04:25:01.782Z,10.80
2018-09-27T04:29:04.122Z,10.90
2018-09-27T04:33:06.386Z,10.60
2018-09-27T04:37:10.131Z,10.80
2018-09-27T04:41:12.541Z,9.80
2018-09-27T04:45:22.640Z,9.70
2018-09-27T04:49:25.221Z,10.30
2018-09-27T04:53:27.961Z,10.60
2018-09-27T04:57:30.197Z,10.80
2018-09-27T05:01:32.450Z,10.00
2018-09-27T05:05:34.763Z,10.90
2018-09-27T05:09:37.098Z,11.00
2018-09-27T05:13:39.382Z,11.00
2018-09-27T05:17:41.646Z,10.90
2018-09-27T05:21:43.934Z,10.90
2018-09-27T05:25:49.816Z,10.70
2018-09-27T05:29:52.062Z,10.60
2018-09-27T05:33:54.302Z,10.70
2018-09-27T05:37:56.513Z,10.80
2018-09-27T05:41:58.745Z,10.80
2018-09-27T05:46:01.078Z,10.90
2018-09-27T05:50:03.577Z,11.00
2018-09-27T05:54:05.830Z,11.10
2018-09-27T05:58:08.096Z,11.30
2018-09-27T06:02:10.739Z,11.50
2018-09-27T06:06:13.038Z,11.60
2018-09-27T06:10:18.372Z,11.70
2018-09-27T06:14:20.590Z,11.90
2018-09-27T06:18:29.311Z,11.60
2018-09-27T06:22:31.905Z,11.60
2018-09-27T06:26:34.322Z,12.40
2018-09-27T06:30:43.597Z,13.00
2018-09-27T06:34:52.362Z,13.30
2018-09-27T06:38:54.758Z,13.70
2018-09-27T06:42:57.011Z,13.60
2018-09-27T06:46:59.212Z,14.30
2018-09-27T06:51:01.472Z,14.90
2018-09-27T06:55:03.809Z,15.60
2018-09-27T06:59:06.090Z,16.20
2018-09-27T07:03:08.396Z,16.70
2018-09-27T07:07:10.639Z,17.10
2018-09-27T07:11:12.916Z,17.20
2018-09-27T07:15:15.119Z,17.60
2018-09-27T07:19:18.670Z,18.20
2018-09-27T07:23:20.902Z,18.60
2018-09-27T07:27:23.175Z,18.40
2018-09-27T07:31:25.460Z,18.60
2018-09-27T07:35:27.681Z,18.90
2018-09-27T07:39:30.064Z,19.20
2018-09-27T07:43:32.296Z,19.90
2018-09-27T07:47:34.565Z,20.00
2018-09-27T07:51:36.791Z,19.80
2018-09-27T07:55:39.080Z,20.10
2018-09-27T07:59:41.367Z,20.40
2018-09-27T08:03:43.598Z,20.30
2018-09-27T08:07:45.860Z,20.60
2018-09-27T08:11:48.337Z,21.10
2018-09-27T08:15:50.435Z,21.10
2018-09-27T08:19:52.674Z,21.60
2018-09-27T08:23:54.865Z,21.90
2018-09-27T08:27:57.209Z,22.00
2018-09-27T08:31:59.477Z,21.70
2018-09-27T08:36:01.712Z,22.10
2018-09-27T08:40:04.136Z,22.10
2018-09-27T08:44:06.974Z,22.00
2018-09-27T08:48:09.533Z,22.20
2018-09-27T08:52:11.859Z,22.00
2018-09-27T08:56:14.256Z,21.70
2018-09-27T09:00:16.488Z,21.80
2018-09-27T09:04:18.815Z,21.70
2018-09-27T09:08:21.112Z,21.90
2018-09-27T09:12:23.370Z,20.40
2018-09-27T09:16:25.696Z,22.30
2018-09-27T09:20:28.046Z,22.60
2018-09-27T09:24:30.356Z,21.40
2018-09-27T09:28:32.887Z,21.60
2018-09-27T09:32:35.219Z,22.00
2018-09-27T09:36:37.542Z,22.00
2018-09-27T09:40:39.848Z,22.20
2018-09-27T09:44:42.148Z,22.50
2018-09-27T09:48:44.437Z,21.90
2018-09-27T09:52:46.746Z,22.00
2018-09-27T09:56:49.073Z,21.70
2018-09-27T10:00:51.371Z,22.10
2018-09-27T10:04:53.799Z,22.00
2018-09-27T10:08:56.183Z,21.70
2018-09-27T10:12:58.445Z,22.30
2018-09-27T10:17:00.758Z,22.20
2018-09-27T10:21:03.050Z,22.60
2018-09-27T10:25:05.473Z,22.20
2018-09-27T10:29:07.893Z,22.20
2018-09-27T10:33:10.203Z,22.40
2018-09-27T10:37:12.510Z,23.00
2018-09-27T10:41:14.810Z,23.20
2018-09-27T10:45:17.148Z,23.70
2018-09-27T10:49:19.416Z,23.10
2018-09-27T10:53:21.715Z,23.60
2018-09-27T10:57:23.998Z,24.10
2018-09-27T11:01:26.312Z,24.10
2018-09-27T11:05:28.639Z,23.80
2018-09-27T11:09:30.923Z,23.90
2018-09-27T11:13:33.236Z,23.90
2018-09-27T11:17:35.552Z,24.20
2018-09-27T11:21:37.971Z,23.90
2018-09-27T11:25:40.253Z,24.40
2018-09-27T11:29:48.231Z,24.90
2018-09-27T11:33:50.600Z,23.50
2018-09-27T11:37:53.070Z,24.00
2018-09-27T11:41:55.396Z,24.70
2018-09-27T11:45:57.709Z,25.20
2018-09-27T11:50:00.044Z,24.60
2018-09-27T11:54:02.393Z,25.00
2018-09-27T11:58:04.743Z,25.20
2018-09-27T12:02:07.096Z,25.70
2018-09-27T12:06:09.423Z,25.60
2018-09-27T12:10:11.826Z,25.40
2018-09-27T12:14:14.541Z,25.60
2018-09-27T12:18:16.827Z,25.90
2018-09-27T12:22:19.152Z,25.50
2018-09-27T12:26:21.453Z,26.40
2018-09-27T12:30:24.318Z,27.10
2018-09-27T12:34:26.774Z,26.50
2018-09-27T12:38:29.236Z,26.60
2018-09-27T12:42:31.501Z,26.50
2018-09-27T12:46:33.940Z,26.10
2018-09-27T12:50:38.251Z,26.50
2018-09-27T12:54:41.214Z,26.40
2018-09-27T12:58:43.636Z,26.70
2018-09-27T13:02:46.038Z,27.70
2018-09-27T13:06:48.346Z,28.90
2018-09-27T13:10:50.709Z,29.00
2018-09-27T13:14:53.034Z,29.60
2018-09-27T13:18:57.941Z,29.90
2018-09-27T13:22:58.316Z,30.00
2018-09-27T13:27:01.195Z,30.20
2018-09-27T13:31:04.010Z,30.00
2018-09-27T13:35:06.343Z,30.60
2018-09-27T13:39:09.518Z,29.70
2018-09-27T13:43:11.809Z,29.60
2018-09-27T13:47:14.118Z,28.60
2018-09-27T13:51:16.497Z,28.70
2018-09-27T13:55:19.206Z,29.20
2018-09-27T13:59:22.202Z,29.50
2018-09-27T14:03:24.579Z,29.50
2018-09-27T14:07:27.508Z,28.60
2018-09-27T14:11:29.918Z,28.00
2018-09-27T14:15:32.324Z,28.10
2018-09-27T14:19:34.831Z,28.90
2018-09-27T14:23:38.124Z,28.60
2018-09-27T14:27:40.983Z,28.60
2018-09-27T14:31:43.456Z,27.70
2018-09-27T14:35:45.864Z,27.40
2018-09-27T14:39:48.202Z,27.40
2018-09-27T14:43:50.556Z,27.40
2018-09-27T14:47:53.050Z,26.20
2018-09-27T14:51:55.203Z,26.10
2018-09-27T14:55:57.551Z,25.80
2018-09-27T14:59:59.906Z,25.30
2018-09-27T15:04:02.321Z,25.50
2018-09-27T15:08:04.710Z,25.90
2018-09-27T15:12:07.182Z,25.50
2018-09-27T15:16:09.707Z,25.50
2018-09-27T15:20:12.022Z,25.50
2018-09-27T15:24:14.353Z,24.60
2018-09-27T15:28:16.723Z,25.40
2018-09-27T15:32:19.120Z,24.80
2018-09-27T15:36:21.821Z,24.70
2018-09-27T15:40:24.162Z,24.20
2018-09-27T15:44:26.583Z,24.30
2018-09-27T15:48:29.693Z,24.50
2018-09-27T15:52:32.113Z,24.70
2018-09-27T15:56:34.530Z,25.20
2018-09-27T16:00:38.635Z,25.10
2018-09-27T16:04:40.982Z,24.70
2018-09-27T16:08:46.097Z,25.30
2018-09-27T16:12:50.842Z,24.90
2018-09-27T16:16:53.833Z,24.10
2018-09-27T16:20:56.281Z,24.60
2018-09-27T16:24:58.625Z,24.40
2018-09-27T16:29:01.007Z,24.20
2018-09-27T16:33:03.386Z,24.70
2018-09-27T16:37:05.818Z,24.60
2018-09-27T16:41:08.432Z,24.30
2018-09-27T16:45:10.817Z,24.20
2018-09-27T16:49:13.215Z,24.20
2018-09-27T16:53:15.581Z,24.20
2018-09-27T16:57:17.914Z,24.10
2018-09-27T17:01:20.241Z,24.10
2018-09-27T17:05:22.647Z,23.90
2018-09-27T17:09:25.020Z,23.60
2018-09-27T17:13:27.373Z,23.50
2018-09-27T17:17:29.720Z,23.50
2018-09-27T17:21:32.079Z,23.30
2018-09-27T17:25:34.484Z,22.90
2018-09-27T17:29:36.956Z,22.60
2018-09-27T17:33:39.236Z,22.40
2018-09-27T17:37:41.626Z,22.30
2018-09-27T17:41:43.967Z,22.20
2018-09-27T17:45:46.866Z,21.70
2018-09-27T17:49:49.219Z,21.40
2018-09-27T17:53:51.530Z,21.10
2018-09-27T17:57:54.620Z,20.90
2018-09-27T18:01:57.013Z,20.80
2018-09-27T18:05:59.343Z,19.90
2018-09-27T18:10:01.680Z,19.90
2018-09-27T18:14:04.901Z,19.60
2018-09-27T18:18:07.456Z,19.60
2018-09-27T18:22:09.821Z,19.50
2018-09-27T18:26:12.211Z,19.60
2018-09-27T18:30:14.561Z,19.60
2018-09-27T18:34:16.892Z,19.30
2018-09-27T18:38:19.306Z,19.30
2018-09-27T18:42:22.113Z,19.30
2018-09-27T18:46:24.783Z,18.90
2018-09-27T18:50:28.641Z,18.50
2018-09-27T18:54:30.961Z,19.00
2018-09-27T18:58:33.271Z,18.30
2018-09-27T19:02:35.621Z,18.50
2018-09-27T19:06:38.010Z,18.60
2018-09-27T19:10:40.311Z,18.30
2018-09-27T19:14:42.612Z,18.20
2018-09-27T19:18:44.985Z,18.30
2018-09-27T19:22:47.432Z,18.00
2018-09-27T19:26:49.742Z,17.90
2018-09-27T19:30:52.054Z,18.00
2018-09-27T19:34:54.394Z,18.00
2018-09-27T19:38:56.732Z,17.60
2018-09-27T19:42:59.198Z,17.40
2018-09-27T19:47:01.531Z,17.50
2018-09-27T19:51:03.906Z,17.30
2018-09-27T19:55:06.308Z,17.30
2018-09-27T19:59:08.611Z,17.10
2018-09-27T20:03:10.982Z,16.80
2018-09-27T20:07:13.384Z,16.90
2018-09-27T20:11:15.739Z,16.30
2018-09-27T20:15:19.256Z,16.40
2018-09-27T20:19:21.574Z,16.30
2018-09-27T20:23:25.030Z,16.70
2018-09-27T20:27:27.352Z,16.40
2018-09-27T20:31:29.770Z,16.80
2018-09-27T20:35:32.080Z,16.80
2018-09-27T20:39:34.371Z,16.90
2018-09-27T20:43:36.685Z,16.40
2018-09-27T20:47:39.038Z,16.40
2018-09-27T20:51:41.296Z,16.70
2018-09-27T20:55:43.594Z,16.50
2018-09-27T20:59:46.287Z,16.50
2018-09-27T21:03:48.599Z,16.30
2018-09-27T21:07:50.862Z,16.40
2018-09-27T21:11:53.145Z,16.00
2018-09-27T21:15:55.444Z,15.90
2018-09-27T21:19:57.710Z,16.20
2018-09-27T21:24:00.021Z,16.20
2018-09-27T21:28:02.269Z,16.30
2018-09-27T21:32:04.549Z,16.30
2018-09-27T21:36:07.728Z,16.50
2018-09-27T21:40:10.020Z,16.30
2018-09-27T21:44:12.309Z,16.20
2018-09-27T21:48:14.576Z,16.00
2018-09-27T21:52:16.920Z,15.80
2018-09-27T21:56:19.159Z,16.20
2018-09-27T22:00:21.511Z,16.20
2018-09-27T22:04:23.751Z,16.00
2018-09-27T22:08:26.082Z,15.80
2018-09-27T22:12:28.346Z,15.50
2018-09-27T22:16:30.571Z,15.50
2018-09-27T22:20:32.889Z,15.50
2018-09-27T22:24:35.176Z,15.90
2018-09-27T22:28:37.419Z,16.20
2018-09-27T22:32:39.716Z,16.10
2018-09-27T22:36:41.994Z,16.10
2018-09-27T22:40:44.309Z,15.90
2018-09-27T22:44:46.590Z,15.80
2018-09-27T22:48:48.863Z,15.60
2018-09-27T22:52:51.163Z,15.30
2018-09-27T22:56:53.482Z,15.30
2018-09-27T23:00:55.781Z,15.30
2018-09-27T23:04:58.071Z,14.80
2018-09-27T23:09:00.312Z,15.10
2018-09-27T23:13:02.614Z,15.10
2018-09-27T23:17:04.908Z,15.10
2018-09-27T23:21:07.225Z,15.00
2018-09-27T23:25:09.543Z,14.80
2018-09-27T23:29:11.828Z,14.70
2018-09-27T23:33:14.094Z,14.70
2018-09-27T23:37:16.372Z,14.90
2018-09-27T23:41:18.602Z,15.10
2018-09-27T23:45:20.910Z,15.10
2018-09-27T23:49:23.395Z,14.70
2018-09-27T23:53:25.666Z,14.80
2018-09-27T23:57:27.908Z,14.90
